Time;durP1;ratioP1;P1;durP2;ratioP2;P2;SDS_P1;SDS_P2;PMS_P1;PMS_P2;Temp;Humidity;BMP_temperature;BMP_pressure;BME280_temperature;BME280_humidity;BME280_pressure;Samples;Min_cycle;Max_cycle;Signal;HPM_P1;HPM_P2
2022/11/17 00:01:58;;;;;;;11.45;3.42;;;10.10;99.90;;;;;;4955484;28;20063;-93
2022/11/17 00:04:25;;;;;;;7.95;2.75;;;10.10;99.90;;;;;;4954643;28;20039;-95
2022/11/17 00:06:51;;;;;;;11.05;3.85;;;10.10;99.90;;;;;;4957533;28;20039;-95
2022/11/17 00:09:17;;;;;;;8.13;3.13;;;10.10;99.90;;;;;;4954995;28;20020;-92
2022/11/17 00:14:35;;;;;;;11.90;4.50;;;10.10;99.90;;;;;;4953578;29;20057;-95
2022/11/17 00:17:12;;;;;;;9.90;3.10;;;10.20;99.90;;;;;;4957319;28;20031;-92
2022/11/17 00:22:23;;;;;;;7.13;2.70;;;10.20;99.90;;;;;;4950467;28;20050;-94
2022/11/17 00:24:49;;;;;;;12.07;2.42;;;10.20;99.90;;;;;;4954115;28;20388;-95
2022/11/17 00:27:18;;;;;;;6.32;1.60;;;10.20;99.90;;;;;;4960579;28;20038;-94
2022/11/17 00:29:43;;;;;;;8.70;1.92;;;10.20;99.90;;;;;;4947569;28;20027;-95
2022/11/17 00:35:04;;;;;;;7.30;2.03;;;10.20;99.90;;;;;;4972746;28;20038;-96
2022/11/17 00:37:35;;;;;;;6.40;2.03;;;10.20;99.90;;;;;;4968549;28;20027;-96
2022/11/17 00:40:00;;;;;;;6.70;2.65;;;10.20;99.90;;;;;;4965109;28;20039;-94
2022/11/17 00:42:26;;;;;;;7.47;2.10;;;10.20;99.90;;;;;;4961534;28;20053;-96
2022/11/17 00:44:52;;;;;;;4.65;2.08;;;10.20;99.90;;;;;;4947088;28;20066;-94
2022/11/17 00:47:18;;;;;;;5.20;1.95;;;10.20;99.90;;;;;;4954567;28;20059;-94
2022/11/17 00:49:44;;;;;;;5.45;1.60;;;10.20;99.90;;;;;;4958398;28;20027;-94
2022/11/17 00:52:09;;;;;;;6.95;2.00;;;10.20;99.90;;;;;;4959013;28;20047;-95
2022/11/17 00:54:35;;;;;;;5.95;1.27;;;10.20;99.90;;;;;;4955755;28;20082;-93
2022/11/17 00:57:01;;;;;;;4.95;1.33;;;10.20;99.90;;;;;;4958674;28;20047;-95
2022/11/17 00:59:30;;;;;;;5.80;1.50;;;10.20;99.90;;;;;;4957950;29;20097;-94
2022/11/17 01:01:55;;;;;;;11.07;1.45;;;10.30;99.90;;;;;;4954042;28;20043;-91
2022/11/17 01:04:21;;;;;;;6.57;1.40;;;10.30;99.90;;;;;;4961966;28;20641;-94
2022/11/17 01:06:48;;;;;;;6.05;1.35;;;10.30;99.90;;;;;;4942066;28;20494;-91
2022/11/17 01:09:16;;;;;;;7.53;0.93;;;10.30;99.90;;;;;;4947009;28;20454;-90
2022/11/17 01:11:43;;;;;;;6.07;1.38;;;10.30;99.90;;;;;;4955949;28;20031;-91
2022/11/17 01:14:18;;;;;;;6.05;1.30;;;10.30;99.90;;;;;;4963484;28;20030;-93
2022/11/17 01:16:44;;;;;;;5.95;1.30;;;10.40;99.90;;;;;;4954124;28;20069;-93
2022/11/17 01:19:12;;;;;;;5.82;1.17;;;10.30;99.90;;;;;;4944934;28;20051;-93
2022/11/17 01:21:37;;;;;;;9.75;1.30;;;10.40;99.90;;;;;;4956207;28;20039;-91
2022/11/17 01:24:03;;;;;;;4.65;1.02;;;10.40;99.90;;;;;;4957804;28;20463;-94
2022/11/17 01:26:32;;;;;;;8.02;1.90;;;10.30;99.90;;;;;;4956723;28;20537;-93
2022/11/17 01:28:59;;;;;;;6.72;1.50;;;10.30;99.90;;;;;;4957139;28;20122;-93
2022/11/17 01:31:31;;;;;;;5.97;1.00;;;10.30;99.90;;;;;;4961142;28;20492;-91
2022/11/17 01:33:57;;;;;;;6.78;1.58;;;10.30;99.90;;;;;;4981207;28;20050;-94
2022/11/17 01:36:25;;;;;;;5.10;1.33;;;10.30;99.90;;;;;;4956304;28;20043;-92
2022/11/17 01:38:51;;;;;;;5.18;1.17;;;10.30;99.90;;;;;;4957352;28;20082;-93
2022/11/17 01:41:26;;;;;;;6.10;1.20;;;10.40;99.90;;;;;;4954821;28;20044;-94
2022/11/17 01:43:54;;;;;;;4.50;1.20;;;10.40;99.90;;;;;;4963538;28;20035;-94
2022/11/17 01:46:37;;;;;;;3.20;1.05;;;10.40;99.90;;;;;;4959257;28;20027;-95
2022/11/17 01:49:05;;;;;;;;;;;10.40;99.90;;;;;;4951331;28;20023;-94
2022/11/17 01:51:34;;;;;;;2.55;1.13;;;10.40;99.90;;;;;;4957881;28;19919;-94
2022/11/17 01:54:01;;;;;;;3.20;0.98;;;10.40;99.90;;;;;;4951903;28;20059;-93
2022/11/17 01:56:34;;;;;;;2.97;1.10;;;10.50;99.90;;;;;;4952463;28;20115;-92
2022/11/17 01:59:17;;;;;;;7.43;1.05;;;10.50;99.90;;;;;;4966676;28;20039;-93
2022/11/17 02:01:54;;;;;;;;;;;10.50;99.90;;;;;;4967422;28;20086;-93
2022/11/17 02:04:32;;;;;;;6.53;1.20;;;10.50;99.90;;;;;;4956829;28;19941;-94
2022/11/17 02:07:25;;;;;;;5.63;1.00;;;10.50;99.90;;;;;;4961365;28;20035;-93
2022/11/17 02:09:52;;;;;;;3.63;1.13;;;10.50;99.90;;;;;;4953317;28;20564;-94
2022/11/17 02:12:18;;;;;;;2.70;0.90;;;10.50;99.90;;;;;;4948881;28;20027;-93
2022/11/17 02:14:44;;;;;;;5.78;0.90;;;10.60;99.90;;;;;;4953083;28;20063;-92
2022/11/17 02:17:10;;;;;;;5.57;1.20;;;10.60;99.90;;;;;;4945002;28;20024;-92
2022/11/17 02:19:41;;;;;;;2.78;0.80;;;10.60;99.90;;;;;;4942597;28;20031;-93
2022/11/17 02:22:42;;;;;;;4.30;1.02;;;10.60;99.90;;;;;;4954081;28;20130;-92
2022/11/17 02:25:29;;;;;;;2.13;0.90;;;10.60;99.90;;;;;;4952034;28;20494;-93
2022/11/17 02:28:18;;;;;;;6.32;1.55;;;10.60;99.90;;;;;;4952187;28;20027;-94
2022/11/17 02:31:18;;;;;;;2.45;0.60;;;10.70;99.90;;;;;;4960669;28;20039;-93
2022/11/17 02:34:04;;;;;;;3.22;0.70;;;10.70;99.90;;;;;;4951988;28;20067;-92
2022/11/17 02:36:54;;;;;;;3.10;0.60;;;10.70;99.90;;;;;;4956375;28;20043;-93
2022/11/17 02:39:25;;;;;;;2.22;0.60;;;10.80;99.90;;;;;;4954552;28;20030;-94
2022/11/17 02:42:13;;;;;;;1.80;0.50;;;10.80;99.90;;;;;;4952420;29;20042;-93
2022/11/17 02:44:56;;;;;;;2.17;0.50;;;10.90;99.90;;;;;;4959956;28;20015;-91
2022/11/17 02:47:30;;;;;;;5.10;1.15;;;10.80;99.90;;;;;;4955793;28;20095;-92
2022/11/17 02:50:00;;;;;;;2.88;0.70;;;10.90;99.90;;;;;;4964103;28;20034;-90
2022/11/17 02:52:27;;;;;;;2.28;0.60;;;10.90;99.90;;;;;;4978533;28;20036;-91
2022/11/17 02:54:59;;;;;;;2.58;0.70;;;10.90;99.90;;;;;;4943363;28;20027;-93
2022/11/17 02:57:33;;;;;;;3.47;0.93;;;10.90;99.90;;;;;;4959625;28;20053;-93
2022/11/17 03:00:03;;;;;;;1.27;0.43;;;11.00;99.90;;;;;;4948757;28;20032;-95
2022/11/17 03:02:57;;;;;;;2.88;0.55;;;11.00;99.90;;;;;;4945864;29;20039;-93
2022/11/17 03:05:34;;;;;;;3.72;0.70;;;11.10;99.90;;;;;;4968724;28;20536;-94
2022/11/17 03:08:11;;;;;;;2.25;0.77;;;11.10;99.90;;;;;;4966288;28;20073;-91
2022/11/17 03:10:43;;;;;;;2.67;0.57;;;11.10;99.90;;;;;;4947660;28;20031;-92
2022/11/17 03:13:35;;;;;;;2.38;0.57;;;11.10;99.90;;;;;;4957868;28;20030;-94
2022/11/17 03:16:19;;;;;;;5.63;0.70;;;11.10;99.90;;;;;;4934221;29;20138;-93
2022/11/17 03:19:00;;;;;;;3.35;0.70;;;11.10;99.90;;;;;;4953552;28;20658;-92
2022/11/17 03:21:36;;;;;;;3.17;0.65;;;11.10;99.90;;;;;;4953220;28;20490;-93
2022/11/17 03:24:14;;;;;;;2.60;0.63;;;11.00;99.90;;;;;;4945291;28;20042;-94
2022/11/17 03:26:46;;;;;;;5.57;0.65;;;11.00;99.90;;;;;;4955515;28;20081;-92
2022/11/17 03:29:16;;;;;;;3.92;0.60;;;10.90;99.90;;;;;;4960096;28;20031;-92
2022/11/17 03:31:46;;;;;;;1.48;0.75;;;10.90;99.90;;;;;;4950195;28;20026;-92
2022/11/17 03:34:16;;;;;;;5.05;0.80;;;10.80;99.90;;;;;;4953073;28;20023;-92
2022/11/17 03:36:46;;;;;;;2.97;1.02;;;10.80;99.90;;;;;;4953989;28;20042;-93
2022/11/17 03:39:22;;;;;;;2.20;0.80;;;10.80;99.90;;;;;;4952868;28;20019;-92
2022/11/17 03:41:50;;;;;;;2.47;0.70;;;10.80;99.90;;;;;;4958473;28;20105;-94
2022/11/17 03:44:20;;;;;;;3.72;0.70;;;10.70;99.90;;;;;;4941227;28;20024;-93
2022/11/17 03:46:48;;;;;;;2.85;0.50;;;10.70;99.90;;;;;;4949998;28;20516;-93
2022/11/17 03:49:28;;;;;;;2.72;0.60;;;10.70;99.90;;;;;;4949131;28;20076;-92
2022/11/17 03:51:54;;;;;;;1.83;0.40;;;10.70;99.90;;;;;;4957993;28;20055;-93
2022/11/17 03:54:20;;;;;;;2.75;0.40;;;10.60;99.90;;;;;;4959329;28;20027;-93
2022/11/17 03:57:06;;;;;;;1.88;0.50;;;10.60;99.90;;;;;;4956681;28;20031;-93
2022/11/17 03:59:46;;;;;;;4.38;0.50;;;10.60;99.90;;;;;;4943190;28;20051;-92
2022/11/17 04:02:20;;;;;;;3.25;0.40;;;10.60;99.90;;;;;;4953580;28;20034;-92
2022/11/17 04:05:04;;;;;;;3.08;0.40;;;10.50;99.90;;;;;;4953646;28;20170;-93
2022/11/17 04:07:34;;;;;;;3.28;0.40;;;10.50;99.90;;;;;;4956519;28;20031;-93
2022/11/17 04:10:00;;;;;;;2.53;0.38;;;10.50;99.90;;;;;;4955728;28;20027;-92
2022/11/17 04:17:54;;;;;;;3.47;0.50;;;10.50;99.90;;;;;;4962495;28;20058;-92
2022/11/17 04:20:21;;;;;;;2.67;0.55;;;10.50;99.90;;;;;;4960057;28;20019;-92
2022/11/17 04:23:05;;;;;;;2.30;0.40;;;10.50;99.90;;;;;;4945673;28;20035;-93
2022/11/17 04:31:05;;;;;;;1.85;0.50;;;10.40;99.90;;;;;;4951624;28;20041;-93
2022/11/17 04:33:30;;;;;;;3.25;0.60;;;10.40;99.90;;;;;;4955154;28;20034;-92
2022/11/17 04:35:56;;;;;;;3.38;0.60;;;10.40;99.90;;;;;;4953350;28;20034;-92
2022/11/17 04:38:22;;;;;;;3.20;0.80;;;10.50;99.90;;;;;;4958336;28;20027;-92
2022/11/17 04:43:31;;;;;;;4.22;0.55;;;10.60;99.90;;;;;;4951526;28;20425;-91
2022/11/17 04:45:58;;;;;;;1.83;0.60;;;10.60;99.90;;;;;;4953863;28;20024;-91
2022/11/17 04:48:24;;;;;;;5.20;0.50;;;10.70;99.90;;;;;;4952728;28;20056;-92
2022/11/17 04:50:53;;;;;;;2.58;0.63;;;10.70;99.90;;;;;;4948908;28;20048;-90
2022/11/17 04:53:19;;;;;;;4.53;1.10;;;10.70;99.90;;;;;;4956798;28;20122;-92
2022/11/17 04:55:44;;;;;;;3.08;0.80;;;10.70;99.90;;;;;;4954718;28;20093;-91
2022/11/17 04:58:10;;;;;;;2.40;0.77;;;10.80;99.90;;;;;;4965539;28;20030;-90
2022/11/17 05:00:35;;;;;;;3.65;0.70;;;10.80;99.90;;;;;;4964312;28;20105;-91
2022/11/17 05:03:01;;;;;;;2.70;0.65;;;10.80;99.90;;;;;;4960668;28;20039;-92
2022/11/17 05:05:26;;;;;;;5.13;1.00;;;10.80;99.90;;;;;;4966339;28;20038;-94
2022/11/17 05:07:52;;;;;;;2.13;0.73;;;10.80;99.90;;;;;;4976106;28;20044;-95
2022/11/17 05:13:20;;;;;;;2.55;0.63;;;10.80;99.90;;;;;;4968253;28;20015;-96
2022/11/17 05:13:25;;;;;;;3.58;0.95;;;10.80;99.90;;;;;;4965684;29;20047;-96
2022/11/17 05:18:42;;;;;;;2.25;0.90;;;10.70;99.90;;;;;;4952333;28;20100;-96
2022/11/17 05:21:10;;;;;;;5.30;1.10;;;10.70;99.90;;;;;;4962087;28;20094;-96
2022/11/17 05:23:54;;;;;;;5.03;0.98;;;10.70;99.90;;;;;;4953159;28;20031;-96
2022/11/17 05:26:21;;;;;;;6.80;1.20;;;10.70;99.90;;;;;;4955243;28;20023;-95
2022/11/17 05:28:47;;;;;;;5.07;2.15;;;10.70;99.90;;;;;;4966021;28;20362;-95
2022/11/17 05:31:13;;;;;;;6.38;3.13;;;10.70;99.90;;;;;;4955646;28;20020;-96
2022/11/17 05:33:40;;;;;;;5.00;2.88;;;10.70;99.90;;;;;;4967115;28;20030;-94
2022/11/17 05:36:06;;;;;;;6.00;1.80;;;10.70;99.90;;;;;;4959022;28;20023;-94
2022/11/17 05:38:32;;;;;;;8.38;2.10;;;10.70;99.90;;;;;;4965825;28;20027;-95
2022/11/17 05:40:58;;;;;;;5.05;2.00;;;10.70;99.90;;;;;;4955845;28;20375;-95
2022/11/17 05:43:23;;;;;;;6.47;2.05;;;10.70;99.90;;;;;;4951529;28;20027;-95
2022/11/17 05:45:49;;;;;;;3.90;1.20;;;10.70;99.90;;;;;;4968199;28;20158;-95
2022/11/17 05:48:15;;;;;;;5.10;1.60;;;10.70;99.90;;;;;;4967662;28;20115;-96
2022/11/17 05:50:40;;;;;;;4.30;1.15;;;10.70;99.90;;;;;;4964118;28;20047;-95
2022/11/17 05:53:06;;;;;;;3.47;1.25;;;10.70;99.90;;;;;;4961277;28;20128;-96
2022/11/17 05:55:32;;;;;;;7.10;1.20;;;10.70;99.90;;;;;;4952166;28;20047;-96
2022/11/17 05:58:03;;;;;;;6.20;0.65;;;10.70;99.90;;;;;;4959954;28;20476;-96
2022/11/17 06:00:30;;;;;;;4.63;0.60;;;10.70;99.90;;;;;;4957565;28;20031;-96
2022/11/17 06:03:01;;;;;;;3.55;0.50;;;10.70;99.90;;;;;;4961369;28;20433;-96
2022/11/17 06:05:27;;;;;;;2.53;0.50;;;10.70;99.90;;;;;;4954221;28;20031;-96
2022/11/17 06:07:58;;;;;;;4.30;0.50;;;10.70;99.90;;;;;;4960397;28;20036;-95
2022/11/17 06:10:25;;;;;;;2.33;0.40;;;10.70;99.90;;;;;;4961900;28;20109;-96
2022/11/17 06:12:51;;;;;;;3.53;0.40;;;10.80;99.90;;;;;;4956956;29;20028;-96
2022/11/17 06:15:21;;;;;;;3.08;0.50;;;10.80;99.90;;;;;;4967045;28;20027;-95
2022/11/17 06:18:01;;;;;;;4.38;0.60;;;10.80;99.90;;;;;;4965367;29;20055;-96
2022/11/17 06:20:47;;;;;;;4.63;0.55;;;10.90;99.90;;;;;;4950708;29;20106;-95
2022/11/17 06:23:17;;;;;;;3.85;0.40;;;10.80;99.90;;;;;;4965630;28;20032;-96
2022/11/17 06:25:44;;;;;;;4.05;0.40;;;10.90;99.90;;;;;;4949836;29;20060;-95
2022/11/17 06:28:12;;;;;;;2.65;0.30;;;10.90;99.90;;;;;;4949924;29;20054;-96
2022/11/17 06:30:38;;;;;;;2.85;0.38;;;10.80;99.90;;;;;;4974702;28;20019;-96
2022/11/17 06:33:21;;;;;;;4.18;0.40;;;10.80;99.90;;;;;;4976491;28;20046;-96
2022/11/17 06:35:51;;;;;;;5.00;0.50;;;10.80;99.90;;;;;;4975305;29;20047;-94
2022/11/17 06:38:25;;;;;;;5.47;0.40;;;10.80;99.90;;;;;;4972208;29;20023;-96
2022/11/17 06:40:51;;;;;;;3.05;0.40;;;10.80;99.90;;;;;;4953368;29;20031;-96
2022/11/17 06:43:18;;;;;;;2.70;0.40;;;10.80;99.90;;;;;;4966969;29;20027;-96
2022/11/17 06:45:48;;;;;;;6.72;0.50;;;10.80;99.90;;;;;;4967192;29;20091;-96
2022/11/17 06:48:16;;;;;;;9.48;0.60;;;10.80;99.90;;;;;;4956386;28;20012;-95
2022/11/17 06:53:51;;;;;;;2.67;0.40;;;10.80;99.90;;;;;;4994417;28;20058;-96
2022/11/17 06:56:38;;;;;;;3.03;0.43;;;10.80;99.90;;;;;;4989262;28;20030;-96
2022/11/17 06:59:06;;;;;;;6.93;0.40;;;10.90;99.90;;;;;;4986282;28;20099;-95
2022/11/17 07:01:32;;;;;;;4.43;0.60;;;10.90;99.90;;;;;;4975162;28;20030;-96
2022/11/17 07:03:57;;;;;;;4.70;0.40;;;10.90;99.90;;;;;;4975812;28;20033;-95
2022/11/17 07:06:29;;;;;;;2.35;0.30;;;10.90;99.90;;;;;;4969352;28;20030;-95
2022/11/17 07:08:54;;;;;;;4.28;0.40;;;10.90;99.90;;;;;;4965348;28;20028;-96
2022/11/17 07:11:20;;;;;;;4.70;0.40;;;10.90;99.90;;;;;;4988807;28;20041;-96
2022/11/17 07:13:46;;;;;;;4.53;0.32;;;10.90;99.90;;;;;;4962966;28;20027;-96
2022/11/17 07:16:21;;;;;;;3.05;0.50;;;10.90;99.90;;;;;;4961152;28;20030;-96
2022/11/17 07:18:48;;;;;;;2.72;0.30;;;10.90;99.90;;;;;;4955591;28;20031;-96
2022/11/17 07:21:14;;;;;;;6.10;0.30;;;10.90;99.90;;;;;;5010630;23;20049;-76
2022/11/17 07:23:41;;;;;;;3.58;0.45;;;10.90;99.90;;;;;;5020349;28;20368;-76
2022/11/17 07:26:07;;;;;;;5.20;0.30;;;10.90;99.90;;;;;;5014935;28;20029;-76
2022/11/17 07:28:34;;;;;;;4.30;0.50;;;10.90;99.90;;;;;;5014165;28;20036;-75
2022/11/17 07:31:04;;;;;;;5.28;0.30;;;10.90;99.90;;;;;;5011275;28;20521;-75
2022/11/17 07:33:30;;;;;;;2.28;0.30;;;10.90;99.90;;;;;;5010503;28;20026;-75
2022/11/17 07:36:04;;;;;;;7.07;0.45;;;10.90;99.90;;;;;;5010163;28;20021;-75
2022/11/17 07:38:31;;;;;;;4.88;0.32;;;10.90;99.90;;;;;;5004010;28;20403;-76
2022/11/17 07:40:59;;;;;;;3.05;0.32;;;10.80;99.90;;;;;;5009053;28;20030;-75
2022/11/17 07:43:25;;;;;;;2.53;0.38;;;10.90;99.90;;;;;;5027050;28;20207;-75
2022/11/17 07:45:50;;;;;;;9.45;0.93;;;10.80;99.90;;;;;;4992257;28;20104;-76
2022/11/17 07:48:16;;;;;;;4.45;0.22;;;10.90;99.90;;;;;;5014610;28;20068;-75
2022/11/17 07:50:41;;;;;;;3.85;0.30;;;10.90;99.90;;;;;;5008783;28;20534;-76
2022/11/17 07:53:07;;;;;;;6.47;0.52;;;10.90;99.90;;;;;;5002032;28;20072;-74
2022/11/17 07:55:33;;;;;;;4.95;0.30;;;10.90;99.90;;;;;;5005421;28;20073;-75
2022/11/17 07:58:00;;;;;;;2.08;0.22;;;10.90;99.90;;;;;;5011730;28;20025;-75
2022/11/17 08:00:28;;;;;;;2.20;0.30;;;10.80;99.90;;;;;;5003696;28;20037;-75
2022/11/17 08:02:54;;;;;;;4.05;0.22;;;10.80;99.90;;;;;;4997101;28;20068;-75
2022/11/17 08:05:20;;;;;;;3.63;0.20;;;10.80;99.90;;;;;;4997010;28;20029;-75
2022/11/17 08:08:00;;;;;;;4.78;0.82;;;10.80;99.90;;;;;;4988684;28;20091;-75
2022/11/17 08:10:29;;;;;;;2.85;0.20;;;10.80;99.90;;;;;;5018405;28;20038;-76
2022/11/17 08:12:55;;;;;;;3.28;0.30;;;10.80;99.90;;;;;;4998389;28;20040;-76
2022/11/17 08:15:21;;;;;;;2.45;0.30;;;10.70;99.90;;;;;;5004729;28;20030;-76
2022/11/17 08:17:58;;;;;;;4.90;0.30;;;10.70;99.90;;;;;;5000302;28;20034;-76
2022/11/17 08:20:24;;;;;;;2.38;0.20;;;10.70;99.90;;;;;;5002968;28;20053;-75
2022/11/17 08:22:52;;;;;;;3.92;0.30;;;10.70;99.90;;;;;;4995294;28;20046;-76
2022/11/17 08:25:19;;;;;;;2.40;0.30;;;10.60;99.90;;;;;;4997127;28;20041;-76
2022/11/17 08:27:45;;;;;;;2.58;0.30;;;10.60;99.90;;;;;;4999957;28;20053;-75
2022/11/17 08:30:10;;;;;;;3.00;0.70;;;10.50;99.90;;;;;;5002250;28;20018;-75
2022/11/17 08:32:36;;;;;;;4.05;0.30;;;10.50;99.90;;;;;;5010014;28;20038;-76
2022/11/17 08:35:04;;;;;;;1.50;0.20;;;10.50;99.90;;;;;;5009855;28;20026;-75
2022/11/17 08:37:30;;;;;;;1.27;0.20;;;10.50;99.90;;;;;;5002694;28;20038;-75
2022/11/17 08:39:56;;;;;;;2.47;0.20;;;10.50;99.90;;;;;;5010797;28;20030;-75
2022/11/17 08:42:22;;;;;;;2.38;0.30;;;10.50;99.90;;;;;;5005664;28;20586;-76
2022/11/17 08:44:47;;;;;;;5.47;0.30;;;10.50;99.90;;;;;;5005501;28;20456;-73
2022/11/17 08:47:13;;;;;;;2.33;0.10;;;10.50;99.90;;;;;;5014474;28;20042;-74
2022/11/17 08:49:38;;;;;;;1.40;0.10;;;10.50;99.90;;;;;;5002038;28;20038;-74
2022/11/17 08:52:04;;;;;;;3.33;0.20;;;10.60;99.90;;;;;;5000873;28;20033;-74
2022/11/17 08:54:30;;;;;;;2.83;0.20;;;10.60;99.90;;;;;;4992439;28;20121;-74
2022/11/17 08:56:57;;;;;;;5.45;0.22;;;10.60;99.90;;;;;;4994415;28;20037;-74
2022/11/17 08:59:22;;;;;;;2.63;0.20;;;10.70;99.90;;;;;;4992326;28;20087;-74
2022/11/17 09:01:48;;;;;;;3.10;0.20;;;10.70;99.90;;;;;;5003550;28;20551;-74
2022/11/17 09:04:14;;;;;;;0.98;0.20;;;10.70;99.90;;;;;;5009945;28;20157;-73
2022/11/17 09:06:39;;;;;;;2.67;0.47;;;10.70;99.90;;;;;;5009563;28;20021;-73
2022/11/17 09:09:05;;;;;;;4.53;0.10;;;10.80;99.90;;;;;;5005803;28;20077;-73
2022/11/17 09:11:31;;;;;;;2.00;0.20;;;10.70;99.90;;;;;;5007331;28;20045;-73
2022/11/17 09:13:56;;;;;;;1.30;0.20;;;10.70;99.90;;;;;;4995027;28;20041;-74
2022/11/17 09:16:24;;;;;;;1.23;0.10;;;10.70;99.90;;;;;;4999318;28;20038;-73
2022/11/17 09:18:57;;;;;;;2.78;0.20;;;10.70;99.90;;;;;;4983456;28;20041;-74
2022/11/17 09:21:23;;;;;;;3.67;0.40;;;10.70;99.90;;;;;;4996424;28;20428;-73
2022/11/17 09:23:49;;;;;;;2.63;0.20;;;10.70;99.90;;;;;;5004583;28;20080;-74
2022/11/17 09:26:15;;;;;;;1.40;0.20;;;10.70;99.90;;;;;;4985830;28;20430;-73
2022/11/17 09:28:42;;;;;;;1.45;0.20;;;10.70;99.90;;;;;;5001066;28;20029;-73
2022/11/17 09:31:17;;;;;;;1.15;0.10;;;10.70;99.90;;;;;;4996995;28;20019;-73
2022/11/17 09:33:43;;;;;;;5.68;0.20;;;10.60;99.90;;;;;;4997116;28;20041;-74
2022/11/17 09:36:11;;;;;;;2.53;0.10;;;10.60;99.90;;;;;;4996136;28;20084;-73
2022/11/17 09:38:37;;;;;;;2.35;0.20;;;10.50;99.90;;;;;;4987285;28;20372;-73
2022/11/17 09:41:38;;;;;;;3.75;0.40;;;10.50;99.90;;;;;;4997619;28;20068;-73
2022/11/17 09:44:31;;;;;;;1.25;0.10;;;10.50;99.90;;;;;;4999570;28;20053;-73
2022/11/17 09:47:09;;;;;;;1.25;0.10;;;10.50;99.90;;;;;;4998506;28;20038;-73
2022/11/17 09:49:43;;;;;;;2.38;0.20;;;10.50;99.90;;;;;;4999195;28;20065;-73
2022/11/17 09:52:21;;;;;;;2.78;0.22;;;10.50;99.90;;;;;;5005452;28;20030;-73
2022/11/17 09:54:52;;;;;;;2.22;0.20;;;10.40;99.90;;;;;;5003644;28;20048;-73
2022/11/17 09:57:40;;;;;;;1.08;0.10;;;10.40;99.90;;;;;;4999688;28;20030;-73
2022/11/17 10:00:14;;;;;;;4.55;0.20;;;10.40;99.90;;;;;;5000746;28;20037;-74
2022/11/17 10:02:40;;;;;;;1.73;0.10;;;10.50;99.90;;;;;;4986987;28;20408;-73
2022/11/17 10:05:15;;;;;;;2.42;0.20;;;10.50;99.90;;;;;;5002325;28;20014;-73
2022/11/17 10:07:50;;;;;;;3.05;0.20;;;10.50;99.90;;;;;;4998563;28;20561;-74
2022/11/17 10:10:21;;;;;;;2.38;0.10;;;10.50;99.90;;;;;;5000457;28;20026;-73
2022/11/17 10:12:51;;;;;;;1.55;0.20;;;10.50;99.90;;;;;;4994782;28;20040;-73
2022/11/17 10:15:29;;;;;;;1.25;0.15;;;10.50;99.90;;;;;;5000756;28;20034;-73
2022/11/17 10:17:55;;;;;;;2.22;0.20;;;10.60;99.90;;;;;;5003038;28;20494;-73
2022/11/17 10:20:22;;;;;;;1.80;0.15;;;10.60;99.90;;;;;;5010966;28;20046;-73
2022/11/17 10:22:51;;;;;;;2.58;0.30;;;10.70;99.90;;;;;;5010539;28;20590;-73
2022/11/17 10:25:40;;;;;;;1.73;0.30;;;10.70;99.90;;;;;;5011468;28;20030;-73
2022/11/17 10:28:08;;;;;;;3.35;0.30;;;10.80;99.90;;;;;;4997619;28;20125;-73
2022/11/17 10:30:34;;;;;;;1.13;0.20;;;10.80;99.90;;;;;;5012231;28;20117;-74
2022/11/17 10:33:01;;;;;;;3.78;0.43;;;10.90;99.90;;;;;;5008793;28;20578;-73
2022/11/17 10:35:31;;;;;;;1.77;0.20;;;11.00;99.90;;;;;;5012583;28;20053;-74
2022/11/17 10:38:00;;;;;;;3.58;0.20;;;11.00;99.90;;;;;;5005590;28;20026;-74
2022/11/17 10:40:31;;;;;;;2.35;0.20;;;11.10;99.90;;;;;;5007777;28;20487;-74
2022/11/17 10:43:23;;;;;;;2.05;0.20;;;11.20;99.90;;;;;;4995498;28;20040;-74
2022/11/17 10:46:17;;;;;;;0.93;0.20;;;11.20;99.90;;;;;;5009461;28;20038;-75
2022/11/17 10:48:59;;;;;;;3.03;0.30;;;11.20;99.90;;;;;;5008067;28;20049;-76
2022/11/17 10:51:27;;;;;;;1.95;0.20;;;11.30;99.90;;;;;;5011463;28;20505;-77
2022/11/17 10:54:20;;;;;;;3.88;0.25;;;11.40;99.90;;;;;;5012273;28;20049;-76
2022/11/17 10:56:53;;;;;;;1.48;0.20;;;11.40;99.90;;;;;;4991533;28;20022;-77
2022/11/17 10:59:28;;;;;;;1.73;0.20;;;11.50;99.90;;;;;;5006719;28;20022;-77
2022/11/17 11:01:54;;;;;;;1.52;0.20;;;11.50;99.90;;;;;;5012250;28;20033;-76
2022/11/17 11:04:33;;;;;;;3.15;0.30;;;11.50;99.90;;;;;;5014226;28;20026;-75
2022/11/17 11:07:06;;;;;;;4.07;0.20;;;11.60;99.90;;;;;;5009665;28;20029;-75
2022/11/17 11:09:32;;;;;;;3.45;0.20;;;11.60;99.90;;;;;;5013022;28;20067;-75
2022/11/17 11:12:00;;;;;;;5.68;0.30;;;11.60;99.90;;;;;;5015762;28;20147;-75
2022/11/17 11:14:29;;;;;;;2.33;0.30;;;11.60;99.90;;;;;;5020830;28;20026;-75
2022/11/17 11:16:54;;;;;;;2.92;0.20;;;11.60;99.90;;;;;;4998332;28;20108;-75
2022/11/17 11:19:20;;;;;;;8.73;0.30;;;11.60;99.90;;;;;;5012625;28;20168;-75
2022/11/17 11:21:46;;;;;;;2.10;0.20;;;11.60;99.90;;;;;;4992128;28;20633;-75
2022/11/17 11:24:26;;;;;;;1.27;0.20;;;11.70;99.90;;;;;;5012496;28;20112;-75
2022/11/17 11:27:11;;;;;;;2.25;0.20;;;11.70;99.90;;;;;;5010825;28;20391;-76
2022/11/17 11:30:00;;;;;;;6.55;0.32;;;11.80;99.90;;;;;;5013315;28;20026;-75
2022/11/17 11:33:01;;;;;;;3.47;0.65;;;11.80;99.90;;;;;;4992594;28;20038;-76
2022/11/17 11:35:52;;;;;;;1.88;0.20;;;11.80;99.90;;;;;;5006983;28;20701;-76
2022/11/17 11:38:29;;;;;;;2.03;0.20;;;11.80;99.90;;;;;;5009013;28;20759;-75
2022/11/17 11:41:34;;;;;;;3.40;0.20;;;11.80;99.90;;;;;;4998584;28;20029;-76
2022/11/17 11:44:19;;;;;;;1.92;0.20;;;11.70;99.90;;;;;;4998044;28;20041;-76
2022/11/17 11:47:10;;;;;;;3.10;0.20;;;11.60;99.90;;;;;;4997877;28;20025;-75
2022/11/17 11:49:58;;;;;;;3.70;0.30;;;11.60;99.90;;;;;;5001770;28;20069;-74
2022/11/17 11:52:31;;;;;;;1.35;0.20;;;11.60;99.90;;;;;;4983292;28;20427;-76
2022/11/17 11:55:04;;;;;;;2.85;0.20;;;11.50;99.90;;;;;;4997914;28;20034;-76
2022/11/17 12:00:13;;;;;;;;;;;11.50;99.90;;;;;;4994894;28;20039;-95
2022/11/17 12:02:54;;;;;;;0.93;0.20;;;11.50;99.90;;;;;;4970095;28;19918;-94
2022/11/17 12:05:43;;;;;;;3.08;0.20;;;11.50;99.90;;;;;;4974392;28;20468;-95
2022/11/17 12:08:27;;;;;;;2.00;0.13;;;11.40;99.90;;;;;;4978929;28;20022;-94
2022/11/17 12:11:59;;;;;;;1.92;0.20;;;11.50;99.90;;;;;;4972089;28;20019;-96
2022/11/17 12:13:52;;;;;;;2.53;0.20;;;11.50;99.90;;;;;;4992723;28;20038;-96
2022/11/17 12:16:26;;;;;;;3.58;0.40;;;11.50;99.90;;;;;;4988642;28;20042;-95
2022/11/17 12:18:52;;;;;;;0.88;0.20;;;11.50;99.90;;;;;;4971710;28;20026;-95
2022/11/17 12:21:24;;;;;;;1.00;0.20;;;11.40;99.90;;;;;;4975688;28;20026;-95
2022/11/17 12:24:12;;;;;;;2.20;0.25;;;11.40;99.90;;;;;;4978245;28;20038;-94
2022/11/17 12:26:38;;;;;;;1.73;0.20;;;11.40;99.90;;;;;;4994710;28;20036;-94
2022/11/17 12:29:19;;;;;;;4.38;0.52;;;11.40;99.90;;;;;;4978931;28;20121;-95
2022/11/17 12:31:50;;;;;;;1.15;0.20;;;11.50;99.90;;;;;;4978565;28;20109;-96
2022/11/17 12:34:26;;;;;;;3.10;0.30;;;11.40;99.90;;;;;;4973617;28;20066;-95
2022/11/17 12:37:20;;;;;;;2.72;0.20;;;11.40;99.90;;;;;;4970426;28;20077;-94
2022/11/17 12:40:03;;;;;;;1.45;0.10;;;11.50;99.90;;;;;;4979563;28;20134;-95
2022/11/17 12:42:30;;;;;;;1.65;0.20;;;11.40;99.90;;;;;;4963247;28;20050;-94
2022/11/17 12:45:14;;;;;;;1.92;0.20;;;11.40;99.90;;;;;;4978574;28;20026;-95
2022/11/17 12:47:46;;;;;;;3.03;0.45;;;11.50;99.90;;;;;;4977564;28;20124;-94
2022/11/17 12:50:25;;;;;;;0.95;0.10;;;11.40;99.90;;;;;;4991687;28;20033;-95
2022/11/17 12:53:10;;;;;;;2.55;0.20;;;11.40;99.90;;;;;;4996354;28;20030;-95
2022/11/17 12:56:01;;;;;;;4.00;0.20;;;11.40;99.90;;;;;;4980908;28;20019;-95
2022/11/17 12:58:37;;;;;;;2.55;0.20;;;11.40;99.90;;;;;;4981411;28;20031;-96
2022/11/17 13:01:37;;;;;;;3.55;0.20;;;11.40;99.90;;;;;;4991949;28;20097;-96
2022/11/17 13:04:11;;;;;;;1.08;0.20;;;11.40;99.90;;;;;;4972017;28;20041;-94
2022/11/17 13:06:37;;;;;;;4.25;0.20;;;11.30;99.90;;;;;;4994233;28;20026;-95
2022/11/17 13:09:10;;;;;;;6.47;0.47;;;11.30;99.90;;;;;;4984367;28;20093;-96
2022/11/17 13:11:36;;;;;;;2.00;0.20;;;11.30;99.90;;;;;;5001299;28;20031;-95
2022/11/17 13:14:15;;;;;;;2.30;0.20;;;11.20;99.90;;;;;;4986770;28;20169;-95
2022/11/17 13:16:47;;;;;;;0.98;0.20;;;11.20;99.90;;;;;;4982446;28;20030;-96
2022/11/17 13:19:37;;;;;;;1.80;0.22;;;11.20;99.90;;;;;;4988848;28;20111;-96
2022/11/17 13:29:42;;;;;;;1.70;0.20;;;11.10;99.90;;;;;;5043086;28;20037;-74
2022/11/17 13:32:18;;;;;;;2.97;0.30;;;11.20;99.90;;;;;;5053920;28;20374;-74
2022/11/17 13:34:52;;;;;;;3.78;0.30;;;11.20;99.90;;;;;;5055343;28;20486;-74
2022/11/17 13:37:28;;;;;;;2.67;0.20;;;11.20;99.90;;;;;;5055306;28;20039;-74
2022/11/17 13:39:58;;;;;;;4.30;0.30;;;11.20;99.90;;;;;;5049558;28;20033;-74
2022/11/17 13:42:26;;;;;;;1.90;0.20;;;11.20;99.90;;;;;;5053076;28;20048;-74
2022/11/17 13:44:57;;;;;;;3.97;0.30;;;11.20;99.90;;;;;;5053298;28;20498;-74
2022/11/17 13:47:39;;;;;;;2.67;0.20;;;11.20;99.90;;;;;;5048099;28;20033;-74
2022/11/17 13:50:30;;;;;;;3.10;0.20;;;11.20;99.90;;;;;;5044917;28;20033;-73
2022/11/17 13:53:22;;;;;;;1.90;0.20;;;11.30;99.90;;;;;;5047653;28;20028;-75